createdAt,value
2024-05-09T00:00:45.197Z,157.88
2024-05-09T00:01:40.100Z,157.13
2024-05-09T00:02:35.308Z,155.96
2024-05-09T00:03:30.568Z,156.99
2024-05-09T00:04:25.924Z,155.67
2024-05-09T00:05:21.084Z,156.40
2024-05-09T00:06:16.268Z,156.99
2024-05-09T00:07:11.292Z,158.18
2024-05-09T00:08:06.575Z,158.32
2024-05-09T00:09:01.763Z,158.48
2024-05-09T00:09:56.958Z,158.32
2024-05-09T00:10:52.401Z,157.43
2024-05-09T00:11:47.434Z,156.84
2024-05-09T00:12:42.547Z,156.10
2024-05-09T00:13:37.760Z,157.28
2024-05-09T00:14:32.997Z,155.09
2024-05-09T00:15:28.174Z,155.96
2024-05-09T00:16:23.359Z,157.13
2024-05-09T00:17:18.605Z,157.13
2024-05-09T00:18:14.011Z,158.63
2024-05-09T00:19:09.384Z,158.48
2024-05-09T00:20:10.917Z,157.58
2024-05-09T00:21:00.713Z,156.84
2024-05-09T00:21:54.618Z,154.94
2024-05-09T00:22:49.836Z,154.80
2024-05-09T00:23:45.053Z,154.66
2024-05-09T00:24:40.211Z,154.23
2024-05-09T00:25:35.709Z,154.51
2024-05-09T00:26:30.554Z,155.96
2024-05-09T00:27:25.741Z,154.80
2024-05-09T00:28:20.951Z,156.10
2024-05-09T00:29:16.375Z,155.52
2024-05-09T00:30:17.505Z,156.25
2024-05-09T00:31:07.735Z,156.40
2024-05-09T00:32:01.989Z,156.25
2024-05-09T00:32:57.241Z,155.81
2024-05-09T00:33:52.558Z,157.43
2024-05-09T00:34:47.547Z,155.67
2024-05-09T00:35:42.768Z,154.23
2024-05-09T00:36:37.936Z,154.51
2024-05-09T00:37:33.126Z,154.23
2024-05-09T00:38:28.374Z,155.09
2024-05-09T00:39:23.733Z,155.81
2024-05-09T00:40:27.163Z,154.94
2024-05-09T00:41:18.028Z,157.13
2024-05-09T00:42:09.189Z,154.80
2024-05-09T00:43:04.370Z,156.69
2024-05-09T00:43:59.598Z,156.84
2024-05-09T00:44:54.768Z,158.32
2024-05-09T00:45:49.944Z,158.18
2024-05-09T00:46:45.191Z,156.84
2024-05-09T00:47:40.613Z,155.52
2024-05-09T00:48:35.870Z,153.94
2024-05-09T00:49:31.019Z,153.24
2024-05-09T00:50:34.057Z,154.66
2024-05-09T00:51:22.410Z,156.10
2024-05-09T00:52:16.508Z,155.96
2024-05-09T00:53:12.652Z,158.18
2024-05-09T00:54:07.092Z,159.84
2024-05-09T00:55:02.141Z,161.39
2024-05-09T00:55:57.324Z,162.65
2024-05-09T00:56:52.524Z,162.65
2024-05-09T00:57:47.692Z,163.28
2024-05-09T00:58:42.939Z,164.57
2024-05-09T00:59:38.215Z,163.92
2024-05-09T01:00:39.012Z,165.39
2024-05-09T01:01:29.764Z,164.57
2024-05-09T01:02:23.834Z,166.21
2024-05-09T01:03:19.499Z,165.22
2024-05-09T01:04:14.138Z,166.71
2024-05-09T01:05:09.420Z,167.21
2024-05-09T01:06:04.465Z,165.55
2024-05-09T01:06:59.669Z,166.04
2024-05-09T01:07:54.919Z,165.55
2024-05-09T01:08:50.189Z,167.54
2024-05-09T01:09:45.246Z,166.04
2024-05-09T01:10:43.681Z,166.54
2024-05-09T01:11:35.892Z,165.88
2024-05-09T01:12:31.054Z,166.21
2024-05-09T01:13:26.096Z,165.71
2024-05-09T01:14:21.340Z,166.38
2024-05-09T01:15:16.524Z,164.90
2024-05-09T01:16:11.664Z,165.22
2024-05-09T01:17:06.964Z,165.71
2024-05-09T01:18:02.550Z,165.71
2024-05-09T01:18:57.352Z,166.54
2024-05-09T01:19:52.598Z,166.54
2024-05-09T01:20:47.650Z,165.88
2024-05-09T01:21:42.973Z,164.25
2024-05-09T01:22:38.036Z,162.65
2024-05-09T01:23:33.326Z,163.12
2024-05-09T01:24:28.478Z,165.22
2024-05-09T01:25:23.666Z,165.71
2024-05-09T01:26:18.898Z,163.60
2024-05-09T01:27:14.080Z,163.12
2024-05-09T01:28:09.256Z,163.92
2024-05-09T01:29:04.503Z,164.73
2024-05-09T01:29:59.694Z,163.76
2024-05-09T01:30:54.866Z,165.55
2024-05-09T01:31:50.205Z,166.54
2024-05-09T01:32:45.341Z,167.21
2024-05-09T01:33:40.567Z,167.71
2024-05-09T01:34:35.731Z,165.88
2024-05-09T01:35:30.947Z,167.04
2024-05-09T01:36:26.122Z,164.41
2024-05-09T01:37:21.328Z,165.55
2024-05-09T01:38:16.534Z,166.21
2024-05-09T01:39:11.720Z,166.21
2024-05-09T01:40:11.982Z,166.21
2024-05-09T01:41:03.114Z,166.21
2024-05-09T01:41:57.223Z,166.21
2024-05-09T01:42:52.393Z,165.55
2024-05-09T01:43:47.601Z,165.71
2024-05-09T01:44:42.803Z,166.54
2024-05-09T01:45:37.990Z,164.90
2024-05-09T01:46:33.304Z,166.54
2024-05-09T01:47:28.553Z,168.56
2024-05-09T01:48:23.740Z,170.11
2024-05-09T01:49:19.128Z,170.11
2024-05-09T01:51:09.309Z,172.21
2024-05-09T01:52:04.389Z,169.24
2024-05-09T01:52:59.597Z,170.80
2024-05-09T01:53:54.771Z,173.11
2024-05-09T01:54:49.973Z,174.74
2024-05-09T01:55:45.293Z,176.40
2024-05-09T01:56:40.500Z,174.55
2024-05-09T01:57:35.582Z,174.01
2024-05-09T01:58:30.761Z,173.29
2024-05-09T01:59:26.036Z,171.68
2024-05-09T02:00:30.258Z,174.55
2024-05-09T02:01:17.607Z,174.55
2024-05-09T02:02:11.950Z,176.59
2024-05-09T02:03:07.207Z,179.05
2024-05-09T02:04:02.626Z,179.82
2024-05-09T02:04:57.428Z,179.05
2024-05-09T02:05:52.600Z,180.21
2024-05-09T02:06:47.794Z,175.66
2024-05-09T02:07:42.925Z,176.21
2024-05-09T02:08:38.182Z,177.72
2024-05-09T02:09:33.487Z,178.29
2024-05-09T02:10:32.572Z,180.21
2024-05-09T02:11:23.781Z,179.05
2024-05-09T02:12:19.086Z,179.05
2024-05-09T02:13:14.078Z,177.53
2024-05-09T02:14:09.338Z,174.19
2024-05-09T02:15:04.508Z,173.29
2024-05-09T02:15:59.700Z,172.57
2024-05-09T02:16:55.093Z,173.29
2024-05-09T02:17:50.699Z,170.11
2024-05-09T02:18:45.381Z,169.59
2024-05-09T02:19:40.650Z,169.93
2024-05-09T02:20:36.930Z,170.11
2024-05-09T02:21:30.889Z,171.51
2024-05-09T02:22:26.090Z,170.98
2024-05-09T02:23:21.297Z,174.19
2024-05-09T02:24:16.444Z,174.74
2024-05-09T02:25:11.706Z,173.29
2024-05-09T02:26:06.956Z,172.21
2024-05-09T02:27:02.253Z,170.63
2024-05-09T02:27:57.309Z,169.93
2024-05-09T02:28:52.541Z,171.86
2024-05-09T02:29:47.747Z,171.51
2024-05-09T02:30:42.969Z,172.21
2024-05-09T02:31:38.124Z,174.01
2024-05-09T02:32:33.402Z,173.47
2024-05-09T02:33:28.708Z,174.19
2024-05-09T02:34:23.779Z,175.29
2024-05-09T02:35:19.062Z,176.21
2024-05-09T02:36:14.088Z,176.96
2024-05-09T02:37:09.405Z,176.59
2024-05-09T02:38:04.534Z,175.10
2024-05-09T02:38:59.714Z,176.96
2024-05-09T02:39:54.942Z,177.15
2024-05-09T02:40:50.205Z,174.92
2024-05-09T02:41:46.228Z,175.10
2024-05-09T02:42:41.290Z,172.93
2024-05-09T02:43:36.460Z,173.47
2024-05-09T02:44:31.937Z,175.10
2024-05-09T02:45:27.034Z,175.47
2024-05-09T02:46:22.198Z,176.77
2024-05-09T02:47:17.483Z,176.96
2024-05-09T02:48:13.856Z,177.72
2024-05-09T02:49:07.963Z,177.15
2024-05-09T02:50:04.527Z,177.72
2024-05-09T02:50:58.352Z,178.67
2024-05-09T02:51:53.673Z,177.53
2024-05-09T02:52:48.791Z,172.39
2024-05-09T02:53:44.030Z,171.51
2024-05-09T02:54:39.250Z,171.51
2024-05-09T02:55:34.464Z,170.11
2024-05-09T02:56:29.707Z,169.76
2024-05-09T02:57:24.785Z,169.24
2024-05-09T02:58:20.024Z,171.15
2024-05-09T02:59:15.315Z,172.75
2024-05-09T03:00:18.457Z,174.55
2024-05-09T03:01:06.633Z,174.55
2024-05-09T03:02:00.959Z,172.75
2024-05-09T03:02:56.155Z,173.65
2024-05-09T03:03:51.800Z,174.37
2024-05-09T03:04:46.725Z,176.21
2024-05-09T03:05:42.297Z,175.29
2024-05-09T03:06:37.021Z,176.40
2024-05-09T03:07:32.213Z,174.55
2024-05-09T03:08:27.590Z,173.11
2024-05-09T03:09:22.636Z,170.46
2024-05-09T03:10:22.451Z,169.42
2024-05-09T03:11:14.233Z,169.93
2024-05-09T03:12:08.171Z,169.42
2024-05-09T03:13:03.233Z,168.90
2024-05-09T03:13:58.246Z,170.11
2024-05-09T03:14:53.408Z,169.93
2024-05-09T03:15:48.501Z,168.90
2024-05-09T03:16:43.585Z,169.76
2024-05-09T03:17:38.868Z,170.28
2024-05-09T03:18:33.785Z,170.63
2024-05-09T03:19:28.721Z,171.15
2024-05-09T03:20:27.736Z,169.42
2024-05-09T03:21:19.885Z,170.63
2024-05-09T03:22:13.745Z,169.93
2024-05-09T03:23:09.963Z,169.93
2024-05-09T03:24:03.940Z,169.24
2024-05-09T03:25:00.665Z,166.21
2024-05-09T03:25:55.934Z,166.54
2024-05-09T03:26:51.097Z,167.21
2024-05-09T03:27:46.297Z,166.54
2024-05-09T03:28:41.567Z,166.38
2024-05-09T03:29:36.839Z,164.57
2024-05-09T03:30:39.937Z,164.41
2024-05-09T03:31:28.418Z,164.57
2024-05-09T03:32:22.633Z,165.39
2024-05-09T03:33:19.557Z,163.92
2024-05-09T03:34:12.736Z,163.76
2024-05-09T03:35:07.899Z,163.28
2024-05-09T03:36:03.173Z,162.96
2024-05-09T03:36:58.060Z,164.57
2024-05-09T03:37:53.100Z,166.21
2024-05-09T03:38:48.111Z,167.88
2024-05-09T03:39:43.107Z,167.54
2024-05-09T03:40:38.522Z,167.21
2024-05-09T03:41:34.506Z,166.54
2024-05-09T03:42:29.539Z,167.04
2024-05-09T03:43:25.368Z,165.55
2024-05-09T03:44:20.672Z,164.41
2024-05-09T03:45:16.180Z,163.76
2024-05-09T03:46:11.925Z,163.12
2024-05-09T03:47:07.149Z,162.01
2024-05-09T03:48:02.479Z,163.60
2024-05-09T03:48:58.875Z,162.01
2024-05-09T03:49:54.211Z,162.01
2024-05-09T03:50:50.058Z,163.92
2024-05-09T03:51:45.286Z,166.04
2024-05-09T03:52:40.600Z,169.93
2024-05-09T03:53:36.436Z,169.24
2024-05-09T03:54:31.635Z,170.28
2024-05-09T03:55:27.381Z,171.51
2024-05-09T03:56:22.739Z,172.93
2024-05-09T03:57:17.946Z,174.74
2024-05-09T03:58:13.664Z,176.77
2024-05-09T03:59:09.035Z,176.03
2024-05-09T04:00:07.354Z,176.96
2024-05-09T04:01:00.777Z,178.67
2024-05-09T04:01:56.077Z,175.84
2024-05-09T04:02:51.888Z,174.55
2024-05-09T04:03:47.366Z,176.21
2024-05-09T04:04:42.782Z,177.34
2024-05-09T04:05:38.616Z,176.21
2024-05-09T04:06:33.843Z,177.53
2024-05-09T04:07:29.755Z,180.60
2024-05-09T04:08:24.995Z,180.21
2024-05-09T04:09:20.382Z,179.43
2024-05-09T04:10:24.059Z,177.72
2024-05-09T04:11:12.767Z,175.29
2024-05-09T04:12:07.066Z,176.77
2024-05-09T04:13:02.490Z,175.29
2024-05-09T04:13:57.109Z,174.55
2024-05-09T04:14:52.070Z,176.96
2024-05-09T04:15:47.185Z,177.90
2024-05-09T04:16:42.175Z,177.53
2024-05-09T04:17:37.395Z,176.96
2024-05-09T04:18:32.470Z,178.67
2024-05-09T04:19:27.609Z,178.86
2024-05-09T04:20:33.098Z,177.90
2024-05-09T04:21:18.710Z,176.96
2024-05-09T04:22:12.626Z,173.65
2024-05-09T04:23:09.831Z,177.34
2024-05-09T04:24:04.781Z,178.86
2024-05-09T04:24:59.777Z,179.43
2024-05-09T04:25:55.119Z,180.60
2024-05-09T04:26:49.937Z,179.43
2024-05-09T04:27:45.032Z,179.24
2024-05-09T04:28:40.158Z,178.67
2024-05-09T04:29:35.371Z,177.53
2024-05-09T04:30:37.129Z,176.77
2024-05-09T04:31:26.479Z,176.21
2024-05-09T04:32:20.645Z,175.10
2024-05-09T04:33:15.978Z,175.66
2024-05-09T04:34:11.191Z,175.84
2024-05-09T04:35:06.601Z,176.59
2024-05-09T04:36:02.430Z,175.47
2024-05-09T04:36:57.596Z,177.15
2024-05-09T04:37:53.327Z,178.10
2024-05-09T04:38:48.708Z,177.90
2024-05-09T04:39:44.154Z,177.53
2024-05-09T04:40:39.886Z,179.05
2024-05-09T04:41:35.372Z,178.10
2024-05-09T04:42:30.615Z,175.47
2024-05-09T04:43:26.883Z,172.93
2024-05-09T04:44:22.322Z,170.80
2024-05-09T04:45:17.978Z,171.51
2024-05-09T04:46:13.555Z,171.86
2024-05-09T04:47:08.912Z,172.04
2024-05-09T04:48:04.821Z,170.63
2024-05-09T04:49:00.013Z,171.15
2024-05-09T04:49:55.425Z,172.04
2024-05-09T04:50:50.902Z,174.55
2024-05-09T04:51:46.270Z,175.10
2024-05-09T04:52:43.068Z,173.65
2024-05-09T04:53:38.638Z,176.59
2024-05-09T04:54:36.479Z,175.10
2024-05-09T04:55:29.837Z,175.66
2024-05-09T04:56:25.450Z,176.96
2024-05-09T04:57:20.713Z,174.92
2024-05-09T04:58:16.562Z,178.86
2024-05-09T04:59:12.083Z,179.43
2024-05-09T05:00:14.320Z,180.99
2024-05-09T05:01:03.846Z,183.78
2024-05-09T05:01:57.865Z,184.80
2024-05-09T05:02:53.073Z,186.24
2024-05-09T05:03:48.136Z,185.62
2024-05-09T05:04:43.236Z,185.73
2024-05-09T05:05:38.343Z,186.79
2024-05-09T05:06:33.279Z,185.73
2024-05-09T05:07:28.471Z,185.83
2024-05-09T05:08:23.604Z,185.42
2024-05-09T05:09:20.383Z,181.98
2024-05-09T05:10:21.591Z,183.18
2024-05-09T05:11:12.726Z,185.42
2024-05-09T05:12:10.432Z,184.39
2024-05-09T05:13:05.631Z,182.58
2024-05-09T05:14:01.171Z,180.60
2024-05-09T05:14:56.470Z,182.58
2024-05-09T05:15:52.349Z,185.62
2024-05-09T05:16:47.606Z,187.85
2024-05-09T05:17:43.198Z,192.60
2024-05-09T05:18:38.600Z,200.85
2024-05-09T05:19:34.082Z,204.10
2024-05-09T05:20:34.149Z,206.80
2024-05-09T05:21:28.724Z,208.64
2024-05-09T05:22:24.042Z,212.28
2024-05-09T05:23:19.704Z,216.34
2024-05-09T05:24:15.019Z,221.30
2024-05-09T05:25:10.475Z,225.25
2024-05-09T05:26:06.037Z,226.18
2024-05-09T05:27:01.350Z,225.72
2024-05-09T05:27:56.797Z,229.83
2024-05-09T05:28:52.385Z,229.19
2024-05-09T05:29:47.753Z,229.35
2024-05-09T05:30:43.202Z,231.45
2024-05-09T05:31:38.665Z,230.31
2024-05-09T05:32:34.115Z,227.28
2024-05-09T05:33:29.632Z,223.57
2024-05-09T05:34:24.572Z,227.60
2024-05-09T05:35:19.646Z,236.45
2024-05-09T05:36:14.864Z,242.04
2024-05-09T05:37:09.684Z,244.74
2024-05-09T05:38:04.841Z,238.52
2024-05-09T05:38:59.781Z,235.27
2024-05-09T05:39:54.865Z,238.69
2024-05-09T05:40:50.094Z,238.86
2024-05-09T05:41:45.135Z,239.91
2024-05-09T05:42:40.208Z,244.93
2024-05-09T05:43:36.774Z,250.92
2024-05-09T05:44:32.119Z,250.92
2024-05-09T05:45:27.581Z,250.35
2024-05-09T05:46:23.190Z,250.73
2024-05-09T05:47:18.665Z,254.23
2024-05-09T05:48:14.319Z,254.23
2024-05-09T05:49:09.905Z,252.66
2024-05-09T05:50:09.364Z,252.08
2024-05-09T05:51:04.203Z,255.41
2024-05-09T05:51:56.238Z,260.07
2024-05-09T05:52:51.950Z,257.01
2024-05-09T05:53:47.261Z,254.62
2024-05-09T05:54:42.544Z,257.82
2024-05-09T05:55:38.077Z,259.86
2024-05-09T05:56:33.618Z,259.25
2024-05-09T05:57:29.024Z,261.31
2024-05-09T05:58:24.518Z,260.69
2024-05-09T05:59:19.955Z,265.76
2024-05-09T06:00:25.420Z,279.09
2024-05-09T06:01:12.240Z,284.17
2024-05-09T06:02:06.543Z,284.66
2024-05-09T06:03:02.175Z,284.42
2024-05-09T06:03:57.331Z,281.97
2024-05-09T06:04:52.789Z,281.73
2024-05-09T06:05:52.156Z,280.77
2024-05-09T06:06:47.399Z,282.46
2024-05-09T06:07:42.948Z,281.01
2024-05-09T06:08:38.539Z,288.67
2024-05-09T06:09:33.899Z,291.49
2024-05-09T06:10:37.531Z,289.69
2024-05-09T06:11:25.717Z,285.16
2024-05-09T06:12:19.707Z,295.43
2024-05-09T06:13:14.733Z,306.18
2024-05-09T06:14:09.774Z,310.52
2024-05-09T06:15:04.833Z,304.19
2024-05-09T06:15:59.908Z,295.96
2024-05-09T06:16:57.683Z,294.37
2024-05-09T06:17:50.254Z,296.76
2024-05-09T06:18:45.199Z,304.19
2024-05-09T06:19:40.252Z,302.79
2024-05-09T06:20:37.676Z,303.63
2024-05-09T06:21:30.270Z,301.67
2024-05-09T06:22:25.593Z,303.91
2024-05-09T06:23:21.423Z,301.95
2024-05-09T06:24:16.778Z,303.07
2024-05-09T06:25:12.141Z,306.18
2024-05-09T06:26:07.279Z,301.40
2024-05-09T06:27:02.234Z,298.93
2024-05-09T06:27:57.363Z,291.23
2024-05-09T06:28:53.563Z,300.29
2024-05-09T06:29:48.680Z,304.47
2024-05-09T06:30:43.804Z,309.94
2024-05-09T06:31:38.809Z,314.69
2024-05-09T06:32:34.231Z,311.41
2024-05-09T06:33:29.232Z,313.19
2024-05-09T06:34:24.031Z,318.05
2024-05-09T06:35:19.050Z,322.42
2024-05-09T06:36:14.318Z,323.70
2024-05-09T06:37:09.167Z,323.70
2024-05-09T06:38:04.397Z,323.38
2024-05-09T06:38:59.283Z,319.91
2024-05-09T06:39:54.405Z,315.91
2024-05-09T06:40:49.568Z,315.60
2024-05-09T06:41:44.634Z,317.43
2024-05-09T06:42:39.554Z,321.16
2024-05-09T06:43:34.560Z,320.22
2024-05-09T06:44:29.715Z,320.85
2024-05-09T06:45:24.680Z,317.43
2024-05-09T06:46:19.730Z,315.60
2024-05-09T06:47:14.718Z,323.06
2024-05-09T06:48:10.358Z,331.88
2024-05-09T06:49:04.883Z,339.79
2024-05-09T06:49:59.796Z,333.91
2024-05-09T06:50:54.931Z,339.44
2024-05-09T06:51:49.802Z,335.96
2024-05-09T06:52:44.818Z,325.95
2024-05-09T06:53:40.122Z,334.25
2024-05-09T06:54:35.425Z,338.39
2024-05-09T06:55:31.128Z,349.19
2024-05-09T06:56:26.457Z,341.56
2024-05-09T06:57:21.867Z,343.34
2024-05-09T06:58:21.430Z,351.81
2024-05-09T06:59:16.972Z,361.10
2024-05-09T07:00:18.610Z,367.99
2024-05-09T07:01:09.142Z,374.28
2024-05-09T07:02:03.360Z,373.43
2024-05-09T07:03:01.667Z,384.56
2024-05-09T07:03:54.785Z,367.58
2024-05-09T07:04:50.141Z,318.05
2024-05-09T07:05:46.655Z,266.62
2024-05-09T07:06:40.991Z,270.13
2024-05-09T07:07:36.505Z,279.33
2024-05-09T07:08:31.615Z,277.44
2024-05-09T07:09:26.674Z,254.03
2024-05-09T07:10:25.708Z,224.33
2024-05-09T07:11:17.717Z,198.78
2024-05-09T07:12:11.918Z,191.81
2024-05-09T07:13:06.761Z,186.36
2024-05-09T07:14:02.091Z,185.42
2024-05-09T07:14:57.054Z,185.31
2024-05-09T07:15:52.217Z,182.98
2024-05-09T07:16:47.458Z,199.63
2024-05-09T07:17:42.585Z,213.80
2024-05-09T07:18:37.651Z,218.07
2024-05-09T07:19:32.680Z,228.07
2024-05-09T07:20:34.106Z,234.93
2024-05-09T07:21:24.727Z,223.87
2024-05-09T07:22:18.760Z,209.30
2024-05-09T07:23:14.314Z,202.84
2024-05-09T07:24:09.724Z,198.54
2024-05-09T07:25:05.229Z,192.26
2024-05-09T07:26:00.838Z,197.82
2024-05-09T07:26:56.107Z,191.47
2024-05-09T07:27:51.688Z,186.36
2024-05-09T07:28:47.300Z,185.01
2024-05-09T07:29:42.834Z,191.92
2024-05-09T07:30:38.143Z,187.75
2024-05-09T07:31:33.434Z,186.47
2024-05-09T07:32:29.069Z,187.85
2024-05-09T07:33:24.862Z,204.61
2024-05-09T07:34:20.038Z,203.72
2024-05-09T07:35:14.991Z,205.24
2024-05-09T07:36:10.006Z,219.23
2024-05-09T07:37:05.072Z,217.92
2024-05-09T07:38:00.188Z,209.71
2024-05-09T07:38:55.101Z,199.51
2024-05-09T07:39:50.140Z,186.89
2024-05-09T07:40:45.457Z,190.69
2024-05-09T07:41:40.325Z,196.99
2024-05-09T07:42:35.487Z,213.11
2024-05-09T07:43:30.525Z,238.00
2024-05-09T07:44:28.794Z,265.33
2024-05-09T07:45:41.703Z,277.68
2024-05-09T07:47:14.149Z,269.91
2024-05-09T07:48:28.906Z,261.10
2024-05-09T07:49:44.918Z,239.74
2024-05-09T07:53:20.965Z,229.51
2024-05-09T07:53:34.555Z,227.76
2024-05-09T07:53:46.980Z,229.35
2024-05-09T07:54:38.865Z,244.20
2024-05-09T07:55:32.942Z,244.74
2024-05-09T07:56:28.222Z,235.44
2024-05-09T07:57:22.959Z,242.39
2024-05-09T07:58:18.007Z,266.19
2024-05-09T07:59:13.033Z,274.88
2024-05-09T08:00:11.919Z,265.33
2024-05-09T08:01:06.342Z,290.20
2024-05-09T08:02:00.844Z,315.30
2024-05-09T08:02:56.181Z,352.19
2024-05-09T08:03:51.773Z,360.31
2024-05-09T08:04:47.143Z,366.75
2024-05-09T08:05:42.772Z,362.30
2024-05-09T08:06:38.239Z,393.41
2024-05-09T08:07:33.522Z,434.70
2024-05-09T08:08:29.204Z,459.89
2024-05-09T08:09:24.607Z,474.95
2024-05-09T08:10:24.520Z,484.97
2024-05-09T08:11:16.691Z,491.40
2024-05-09T08:12:11.193Z,496.52
2024-05-09T08:13:06.823Z,497.27
2024-05-09T08:14:01.746Z,504.03
2024-05-09T08:14:56.754Z,514.93
2024-05-09T08:15:51.935Z,528.81
2024-05-09T08:16:46.882Z,502.13
2024-05-09T08:17:42.043Z,508.26
2024-05-09T08:18:37.236Z,534.32
2024-05-09T08:19:32.000Z,536.04
2024-05-09T08:20:31.218Z,538.64
2024-05-09T08:21:23.115Z,550.19
2024-05-09T08:22:17.105Z,548.38
2024-05-09T08:23:13.444Z,563.68
2024-05-09T08:24:09.111Z,572.39
2024-05-09T08:25:04.572Z,618.58
2024-05-09T08:26:00.328Z,648.04
2024-05-09T08:26:55.635Z,643.04
2024-05-09T08:27:51.186Z,599.67
2024-05-09T08:28:46.720Z,569.94
2024-05-09T08:29:42.325Z,548.38
2024-05-09T08:30:38.418Z,552.01
2024-05-09T08:31:33.927Z,589.08
2024-05-09T08:32:29.208Z,614.59
2024-05-09T08:33:24.220Z,628.49
2024-05-09T08:34:19.250Z,615.16
2024-05-09T08:35:14.213Z,572.39
2024-05-09T08:36:09.267Z,555.69
2024-05-09T08:37:12.911Z,562.25
2024-05-09T08:38:00.391Z,559.42
2024-05-09T08:38:54.396Z,555.69
2024-05-09T08:39:49.471Z,543.47
2024-05-09T08:40:44.626Z,521.37
2024-05-09T08:41:39.431Z,493.95
2024-05-09T08:42:34.534Z,502.51
2024-05-09T08:43:29.580Z,518.94
2024-05-09T08:44:24.741Z,541.70
2024-05-09T08:45:20.283Z,604.02
2024-05-09T08:46:15.924Z,643.66
2024-05-09T08:47:11.277Z,664.84
2024-05-09T08:48:10.162Z,679.06
2024-05-09T08:49:05.656Z,673.57
2024-05-09T08:50:01.414Z,638.12
2024-05-09T08:50:56.602Z,615.73
2024-05-09T08:51:52.018Z,632.67
2024-05-09T08:52:47.094Z,623.21
2024-05-09T08:53:42.090Z,608.42
2024-05-09T08:54:37.211Z,622.63
2024-05-09T08:55:32.260Z,641.80
2024-05-09T08:56:27.231Z,649.93
2024-05-09T08:57:22.464Z,659.58
2024-05-09T08:58:17.642Z,641.19
2024-05-09T08:59:12.559Z,610.65
2024-05-09T09:00:12.526Z,584.43
2024-05-09T09:01:03.660Z,566.55
2024-05-09T09:01:57.875Z,588.04
2024-05-09T09:02:52.865Z,598.06
2024-05-09T09:03:48.297Z,590.12
2024-05-09T09:04:43.786Z,582.90
2024-05-09T09:05:39.826Z,589.60
2024-05-09T09:06:34.915Z,615.73
2024-05-09T09:07:30.573Z,608.98
2024-05-09T09:08:25.617Z,637.51
2024-05-09T09:09:21.059Z,660.89
2024-05-09T09:10:24.948Z,643.04
2024-05-09T09:11:13.091Z,624.38
2024-05-09T09:12:10.188Z,622.05
2024-05-09T09:13:02.902Z,612.34
2024-05-09T09:13:58.363Z,616.30
2024-05-09T09:14:55.266Z,639.96
2024-05-09T09:15:48.793Z,686.04
2024-05-09T09:16:43.836Z,668.84
2024-05-09T09:17:38.958Z,665.50
2024-05-09T09:18:34.240Z,642.42
2024-05-09T09:19:29.095Z,647.41
2024-05-09T09:20:29.528Z,682.53
2024-05-09T09:21:20.154Z,646.16
2024-05-09T09:22:15.902Z,653.76
2024-05-09T09:23:10.870Z,689.59
2024-05-09T09:24:07.492Z,662.86
2024-05-09T09:25:00.971Z,634.47
2024-05-09T09:25:56.503Z,605.11
2024-05-09T09:26:52.100Z,611.21
2024-05-09T09:27:47.632Z,620.89
2024-05-09T09:28:43.032Z,687.46
2024-05-09T09:29:38.481Z,701.19
2024-05-09T09:30:37.453Z,674.93
2024-05-09T09:31:29.634Z,693.17
2024-05-09T09:32:24.923Z,736.83
2024-05-09T09:33:20.635Z,735.21
2024-05-09T09:34:16.148Z,738.46
2024-05-09T09:35:11.259Z,741.75
2024-05-09T09:36:08.409Z,744.23
2024-05-09T09:37:02.416Z,745.90
2024-05-09T09:37:57.934Z,736.83
2024-05-09T09:38:52.906Z,702.67
2024-05-09T09:39:49.207Z,646.78
2024-05-09T09:40:46.973Z,631.47
2024-05-09T09:41:39.058Z,642.42
2024-05-09T09:42:33.205Z,635.08
2024-05-09T09:43:28.190Z,683.23
2024-05-09T09:44:23.250Z,709.40
2024-05-09T09:45:20.964Z,693.90
2024-05-09T09:46:16.232Z,704.90
2024-05-09T09:47:11.275Z,681.83
2024-05-09T09:48:06.485Z,670.18
2024-05-09T09:49:02.276Z,691.02
2024-05-09T09:49:57.842Z,747.48
2024-05-09T09:50:53.262Z,756.37
2024-05-09T09:51:48.791Z,764.60
2024-05-09T09:52:44.439Z,732.78
2024-05-09T09:53:39.874Z,696.07
2024-05-09T09:54:35.378Z,686.75
2024-05-09T09:55:31.031Z,681.14
2024-05-09T09:56:26.543Z,699.72
2024-05-09T09:57:21.911Z,740.10
2024-05-09T09:58:17.843Z,775.26
2024-05-09T09:59:12.991Z,782.99
2024-05-09T10:00:11.786Z,812.04
2024-05-09T10:01:04.129Z,831.26
2024-05-09T10:01:59.620Z,843.87
2024-05-09T10:02:55.135Z,832.29
2024-05-09T10:03:50.507Z,812.04
2024-05-09T10:04:45.997Z,749.16
2024-05-09T10:05:44.265Z,725.61
2024-05-09T10:06:37.902Z,736.02
2024-05-09T10:07:32.334Z,746.64
2024-05-09T10:08:27.917Z,775.26
2024-05-09T10:09:23.508Z,800.84
2024-05-09T10:10:26.934Z,844.40
2024-05-09T10:11:15.079Z,864.64
2024-05-09T10:12:09.600Z,856.87
2024-05-09T10:13:04.528Z,829.71
2024-05-09T10:13:59.334Z,806.65
2024-05-09T10:14:54.397Z,777.52
2024-05-09T10:15:49.430Z,745.90
2024-05-09T10:16:44.494Z,745.07
2024-05-09T10:17:39.573Z,796.54
2024-05-09T10:18:34.910Z,868.58
2024-05-09T10:19:29.677Z,978.02
2024-05-09T10:20:28.099Z,1022.99
2024-05-09T10:21:20.940Z,1106.96
2024-05-09T10:22:17.823Z,1167.98
2024-05-09T10:23:13.067Z,1194.10
2024-05-09T10:24:08.086Z,1218.07
2024-05-09T10:25:05.126Z,1117.16
2024-05-09T10:25:58.076Z,1014.44
2024-05-09T10:26:53.262Z,1039.72
2024-05-09T10:27:48.444Z,1004.52
2024-05-09T10:28:43.666Z,1006.03
2024-05-09T10:29:38.608Z,1069.71
2024-05-09T10:30:36.264Z,1009.83
2024-05-09T10:31:29.661Z,1003.76
2024-05-09T10:32:25.154Z,1061.21
2024-05-09T10:33:21.022Z,1162.89
2024-05-09T10:34:16.512Z,1119.03
2024-05-09T10:35:11.802Z,1031.69
2024-05-09T10:36:07.806Z,1044.60
2024-05-09T10:37:04.977Z,1055.34
2024-05-09T10:37:58.860Z,1073.15
2024-05-09T10:38:54.294Z,1088.02
2024-05-09T10:39:49.722Z,1038.91
2024-05-09T10:40:45.753Z,957.68
2024-05-09T10:41:41.143Z,898.99
2024-05-09T10:42:36.685Z,918.16
2024-05-09T10:43:32.777Z,962.51
2024-05-09T10:44:28.377Z,1034.88
2024-05-09T10:45:24.150Z,1051.18
2024-05-09T10:46:20.130Z,1111.57
2024-05-09T10:47:15.040Z,1110.65
2024-05-09T10:48:11.157Z,1087.13
2024-05-09T10:49:08.016Z,1076.61
2024-05-09T10:50:02.553Z,1108.80
2024-05-09T10:50:57.892Z,1173.11
2024-05-09T10:51:53.336Z,1324.41
2024-05-09T10:52:48.994Z,1441.69
2024-05-09T10:53:44.555Z,1467.03
2024-05-09T10:54:40.095Z,1429.34
2024-05-09T10:55:36.116Z,1449.51
2024-05-09T10:56:31.782Z,1525.71
2024-05-09T10:57:27.733Z,1505.92
2024-05-09T10:58:23.201Z,1583.63
2024-05-09T10:59:18.740Z,1660.45
2024-05-09T11:00:23.234Z,1748.53
2024-05-09T11:01:10.971Z,1749.67
2024-05-09T11:02:05.446Z,1682.42
2024-05-09T11:03:00.924Z,1526.59
2024-05-09T11:03:56.564Z,1362.24
2024-05-09T11:04:52.347Z,1276.29
2024-05-09T11:05:47.619Z,1141.03
2024-05-09T11:06:43.003Z,1221.41
2024-05-09T11:07:39.223Z,1370.64
2024-05-09T11:08:34.711Z,1555.94
2024-05-09T11:09:30.642Z,1480.04
2024-05-09T11:10:33.355Z,1291.10
2024-05-09T11:11:22.808Z,1187.72
2024-05-09T11:12:17.936Z,1220.29
2024-05-09T11:13:13.380Z,1444.81
2024-05-09T11:14:08.665Z,1656.33
2024-05-09T11:15:03.901Z,1762.38
2024-05-09T11:15:59.749Z,1859.33
2024-05-09T11:16:55.199Z,1940.41
2024-05-09T11:17:51.146Z,1983.66
2024-05-09T11:18:46.458Z,1986.61
2024-05-09T11:19:42.051Z,1937.59
2024-05-09T11:20:38.011Z,1781.19
2024-05-09T11:21:33.339Z,1753.12
2024-05-09T11:22:29.222Z,1658.39
2024-05-09T11:23:24.603Z,1449.51
2024-05-09T11:24:20.224Z,1384.85
2024-05-09T11:25:16.033Z,1291.10
2024-05-09T11:26:11.445Z,1254.70
2024-05-09T11:27:07.316Z,1343.06
2024-05-09T11:28:02.691Z,1320.47
2024-05-09T11:28:57.974Z,1362.24
2024-05-09T11:29:53.890Z,1358.09
2024-05-09T11:30:49.253Z,1414.19
2024-05-09T11:31:44.717Z,1379.13
2024-05-09T11:32:41.042Z,1372.05